sensor_id;sensor_type;location;lat;lon;timestamp;P1;durP1;ratioP1;P2;durP2;ratioP2
21022;SDS011;10669;51.076;3.714;2022-08-01T00:01:40;10.15;;;4.80;;
21022;SDS011;10669;51.076;3.714;2022-08-01T00:04:08;9.57;;;5.28;;
21022;SDS011;10669;51.076;3.714;2022-08-01T00:06:35;11.40;;;5.97;;
21022;SDS011;10669;51.076;3.714;2022-08-01T00:09:01;11.68;;;6.57;;
21022;SDS011;10669;51.076;3.714;2022-08-01T00:11:29;14.98;;;6.80;;
21022;SDS011;10669;51.076;3.714;2022-08-01T00:16:26;14.55;;;7.55;;
21022;SDS011;10669;51.076;3.714;2022-08-01T00:18:52;17.58;;;9.60;;
21022;SDS011;10669;51.076;3.714;2022-08-01T00:21:21;20.52;;;9.10;;
21022;SDS011;10669;51.076;3.714;2022-08-01T00:26:18;19.90;;;9.25;;
21022;SDS011;10669;51.076;3.714;2022-08-01T00:28:50;18.25;;;9.15;;
21022;SDS011;10669;51.076;3.714;2022-08-01T00:31:19;15.75;;;9.43;;
21022;SDS011;10669;51.076;3.714;2022-08-01T00:33:48;20.63;;;9.45;;
21022;SDS011;10669;51.076;3.714;2022-08-01T00:36:15;25.83;;;10.60;;
21022;SDS011;10669;51.076;3.714;2022-08-01T00:38:44;20.27;;;10.57;;
21022;SDS011;10669;51.076;3.714;2022-08-01T00:41:12;17.42;;;10.35;;
21022;SDS011;10669;51.076;3.714;2022-08-01T00:43:38;26.02;;;11.07;;
21022;SDS011;10669;51.076;3.714;2022-08-01T00:46:07;20.48;;;9.82;;
21022;SDS011;10669;51.076;3.714;2022-08-01T00:48:34;26.48;;;12.07;;
21022;SDS011;10669;51.076;3.714;2022-08-01T00:51:03;20.75;;;11.43;;
21022;SDS011;10669;51.076;3.714;2022-08-01T00:53:30;26.05;;;11.50;;
21022;SDS011;10669;51.076;3.714;2022-08-01T00:55:59;23.35;;;12.75;;
21022;SDS011;10669;51.076;3.714;2022-08-01T01:00:57;23.95;;;13.27;;
21022;SDS011;10669;51.076;3.714;2022-08-01T01:03:24;26.08;;;13.40;;
21022;SDS011;10669;51.076;3.714;2022-08-01T01:08:58;24.23;;;13.25;;
21022;SDS011;10669;51.076;3.714;2022-08-01T01:15:17;28.02;;;14.55;;
21022;SDS011;10669;51.076;3.714;2022-08-01T01:20:00;30.13;;;14.82;;
21022;SDS011;10669;51.076;3.714;2022-08-01T01:28:40;28.90;;;14.85;;
21022;SDS011;10669;51.076;3.714;2022-08-01T01:34:19;31.75;;;13.30;;
21022;SDS011;10669;51.076;3.714;2022-08-01T01:36:47;20.38;;;11.65;;
21022;SDS011;10669;51.076;3.714;2022-08-01T01:39:16;27.92;;;12.75;;
21022;SDS011;10669;51.076;3.714;2022-08-01T01:41:45;20.63;;;8.73;;
21022;SDS011;10669;51.076;3.714;2022-08-01T01:44:12;22.90;;;9.15;;
21022;SDS011;10669;51.076;3.714;2022-08-01T01:46:39;14.20;;;7.38;;
21022;SDS011;10669;51.076;3.714;2022-08-01T01:49:09;14.65;;;6.95;;
21022;SDS011;10669;51.076;3.714;2022-08-01T01:51:36;11.35;;;6.57;;
21022;SDS011;10669;51.076;3.714;2022-08-01T01:54:03;19.20;;;7.07;;
21022;SDS011;10669;51.076;3.714;2022-08-01T01:56:32;11.23;;;6.57;;
21022;SDS011;10669;51.076;3.714;2022-08-01T01:59:03;11.05;;;5.72;;
21022;SDS011;10669;51.076;3.714;2022-08-01T02:01:32;16.45;;;5.97;;
21022;SDS011;10669;51.076;3.714;2022-08-01T02:04:01;9.57;;;5.80;;
21022;SDS011;10669;51.076;3.714;2022-08-01T02:06:33;11.45;;;5.80;;
21022;SDS011;10669;51.076;3.714;2022-08-01T02:11:30;11.40;;;5.07;;
21022;SDS011;10669;51.076;3.714;2022-08-01T02:14:02;11.70;;;4.88;;
21022;SDS011;10669;51.076;3.714;2022-08-01T02:16:34;11.32;;;5.20;;
21022;SDS011;10669;51.076;3.714;2022-08-01T02:19:05;8.90;;;5.10;;
21022;SDS011;10669;51.076;3.714;2022-08-01T02:21:40;9.65;;;4.68;;
21022;SDS011;10669;51.076;3.714;2022-08-01T02:27:07;6.57;;;3.97;;
21022;SDS011;10669;51.076;3.714;2022-08-01T02:29:53;9.38;;;3.88;;
21022;SDS011;10669;51.076;3.714;2022-08-01T02:35:07;6.65;;;4.03;;
21022;SDS011;10669;51.076;3.714;2022-08-01T02:37:39;6.22;;;3.45;;
21022;SDS011;10669;51.076;3.714;2022-08-01T02:40:07;6.38;;;3.53;;
21022;SDS011;10669;51.076;3.714;2022-08-01T02:42:42;10.80;;;4.05;;
21022;SDS011;10669;51.076;3.714;2022-08-01T02:45:12;9.05;;;4.45;;
21022;SDS011;10669;51.076;3.714;2022-08-01T02:47:38;11.55;;;4.65;;
21022;SDS011;10669;51.076;3.714;2022-08-01T02:50:09;8.40;;;3.53;;
21022;SDS011;10669;51.076;3.714;2022-08-01T02:52:37;6.15;;;3.40;;
21022;SDS011;10669;51.076;3.714;2022-08-01T02:55:06;12.60;;;3.78;;
21022;SDS011;10669;51.076;3.714;2022-08-01T02:57:35;5.38;;;3.10;;
21022;SDS011;10669;51.076;3.714;2022-08-01T03:00:03;7.00;;;3.83;;
21022;SDS011;10669;51.076;3.714;2022-08-01T03:02:32;7.78;;;3.22;;
21022;SDS011;10669;51.076;3.714;2022-08-01T03:04:59;5.63;;;3.20;;
21022;SDS011;10669;51.076;3.714;2022-08-01T03:07:29;6.72;;;3.08;;
21022;SDS011;10669;51.076;3.714;2022-08-01T03:09:56;4.95;;;2.55;;
21022;SDS011;10669;51.076;3.714;2022-08-01T03:12:27;7.10;;;3.35;;
21022;SDS011;10669;51.076;3.714;2022-08-01T03:14:59;7.63;;;2.63;;
21022;SDS011;10669;51.076;3.714;2022-08-01T03:20:00;3.95;;;2.47;;
21022;SDS011;10669;51.076;3.714;2022-08-01T03:22:32;3.00;;;2.42;;
21022;SDS011;10669;51.076;3.714;2022-08-01T03:24:59;5.15;;;2.45;;
21022;SDS011;10669;51.076;3.714;2022-08-01T03:27:31;5.32;;;2.63;;
21022;SDS011;10669;51.076;3.714;2022-08-01T03:29:59;5.75;;;2.40;;
21022;SDS011;10669;51.076;3.714;2022-08-01T03:32:32;3.38;;;2.25;;
21022;SDS011;10669;51.076;3.714;2022-08-01T03:35:00;5.75;;;2.55;;
21022;SDS011;10669;51.076;3.714;2022-08-01T03:37:27;3.75;;;2.38;;
21022;SDS011;10669;51.076;3.714;2022-08-01T03:40:09;7.07;;;2.03;;
21022;SDS011;10669;51.076;3.714;2022-08-01T03:42:50;2.97;;;2.20;;
21022;SDS011;10669;51.076;3.714;2022-08-01T03:45:21;4.25;;;2.15;;
21022;SDS011;10669;51.076;3.714;2022-08-01T03:47:52;4.07;;;2.40;;
21022;SDS011;10669;51.076;3.714;2022-08-01T03:50:25;5.78;;;3.17;;
21022;SDS011;10669;51.076;3.714;2022-08-01T03:52:53;6.70;;;3.30;;
21022;SDS011;10669;51.076;3.714;2022-08-01T03:55:20;3.20;;;2.38;;
21022;SDS011;10669;51.076;3.714;2022-08-01T03:57:48;4.97;;;2.53;;
21022;SDS011;10669;51.076;3.714;2022-08-01T04:00:15;7.63;;;3.25;;
21022;SDS011;10669;51.076;3.714;2022-08-01T04:02:46;6.50;;;3.30;;
21022;SDS011;10669;51.076;3.714;2022-08-01T04:05:18;5.90;;;2.78;;
21022;SDS011;10669;51.076;3.714;2022-08-01T04:07:45;5.93;;;3.08;;
21022;SDS011;10669;51.076;3.714;2022-08-01T04:10:22;4.65;;;3.25;;
21022;SDS011;10669;51.076;3.714;2022-08-01T04:12:51;4.93;;;3.10;;
21022;SDS011;10669;51.076;3.714;2022-08-01T04:17:49;5.45;;;3.08;;
21022;SDS011;10669;51.076;3.714;2022-08-01T04:22:45;6.82;;;3.30;;
21022;SDS011;10669;51.076;3.714;2022-08-01T04:25:21;7.53;;;3.42;;
21022;SDS011;10669;51.076;3.714;2022-08-01T04:27:56;7.15;;;3.10;;
21022;SDS011;10669;51.076;3.714;2022-08-01T04:30:31;5.60;;;3.42;;
21022;SDS011;10669;51.076;3.714;2022-08-01T04:35:31;6.20;;;3.60;;
21022;SDS011;10669;51.076;3.714;2022-08-01T04:40:28;4.75;;;3.65;;
21022;SDS011;10669;51.076;3.714;2022-08-01T04:42:56;6.70;;;4.00;;
21022;SDS011;10669;51.076;3.714;2022-08-01T04:45:23;4.72;;;3.47;;
21022;SDS011;10669;51.076;3.714;2022-08-01T04:47:50;7.60;;;3.70;;
21022;SDS011;10669;51.076;3.714;2022-08-01T04:50:18;5.65;;;3.10;;
21022;SDS011;10669;51.076;3.714;2022-08-01T04:55:16;4.82;;;3.28;;
21022;SDS011;10669;51.076;3.714;2022-08-01T04:57:45;5.35;;;2.90;;
21022;SDS011;10669;51.076;3.714;2022-08-01T05:00:11;4.05;;;3.25;;
21022;SDS011;10669;51.076;3.714;2022-08-01T05:02:43;3.70;;;3.13;;
21022;SDS011;10669;51.076;3.714;2022-08-01T05:05:13;5.80;;;3.20;;
21022;SDS011;10669;51.076;3.714;2022-08-01T05:07:39;3.92;;;2.90;;
21022;SDS011;10669;51.076;3.714;2022-08-01T05:10:05;6.60;;;3.20;;
21022;SDS011;10669;51.076;3.714;2022-08-01T05:12:34;5.80;;;2.80;;
21022;SDS011;10669;51.076;3.714;2022-08-01T05:15:01;5.60;;;3.00;;
21022;SDS011;10669;51.076;3.714;2022-08-01T05:17:27;6.53;;;3.10;;
21022;SDS011;10669;51.076;3.714;2022-08-01T05:22:23;3.15;;;2.30;;
21022;SDS011;10669;51.076;3.714;2022-08-01T05:24:56;5.78;;;2.75;;
21022;SDS011;10669;51.076;3.714;2022-08-01T05:27:23;4.55;;;2.90;;
21022;SDS011;10669;51.076;3.714;2022-08-01T05:29:52;4.75;;;2.70;;
21022;SDS011;10669;51.076;3.714;2022-08-01T05:32:17;5.65;;;2.72;;
21022;SDS011;10669;51.076;3.714;2022-08-01T05:34:44;4.93;;;3.17;;
21022;SDS011;10669;51.076;3.714;2022-08-01T05:37:10;3.35;;;3.03;;
21022;SDS011;10669;51.076;3.714;2022-08-01T05:39:38;3.70;;;2.88;;
21022;SDS011;10669;51.076;3.714;2022-08-01T05:42:04;7.65;;;2.92;;
21022;SDS011;10669;51.076;3.714;2022-08-01T05:44:30;4.13;;;2.70;;
21022;SDS011;10669;51.076;3.714;2022-08-01T05:46:57;8.93;;;2.70;;
21022;SDS011;10669;51.076;3.714;2022-08-01T05:49:26;7.30;;;3.25;;
21022;SDS011;10669;51.076;3.714;2022-08-01T05:54:22;4.82;;;3.03;;
21022;SDS011;10669;51.076;3.714;2022-08-01T05:56:51;4.25;;;3.08;;
21022;SDS011;10669;51.076;3.714;2022-08-01T05:59:16;4.10;;;3.10;;
21022;SDS011;10669;51.076;3.714;2022-08-01T06:01:45;4.68;;;2.95;;
21022;SDS011;10669;51.076;3.714;2022-08-01T06:04:14;4.97;;;3.03;;
21022;SDS011;10669;51.076;3.714;2022-08-01T06:06:41;3.13;;;2.78;;
21022;SDS011;10669;51.076;3.714;2022-08-01T06:09:12;4.22;;;2.80;;
21022;SDS011;10669;51.076;3.714;2022-08-01T06:11:38;5.65;;;3.22;;
21022;SDS011;10669;51.076;3.714;2022-08-01T06:14:05;3.50;;;3.20;;
21022;SDS011;10669;51.076;3.714;2022-08-01T06:16:34;4.97;;;2.92;;
21022;SDS011;10669;51.076;3.714;2022-08-01T06:19:01;5.28;;;2.65;;
21022;SDS011;10669;51.076;3.714;2022-08-01T06:21:30;6.38;;;2.33;;
21022;SDS011;10669;51.076;3.714;2022-08-01T06:23:57;3.13;;;2.10;;
21022;SDS011;10669;51.076;3.714;2022-08-01T06:26:24;5.78;;;2.35;;
21022;SDS011;10669;51.076;3.714;2022-08-01T06:31:21;4.93;;;2.13;;
21022;SDS011;10669;51.076;3.714;2022-08-01T06:33:47;4.57;;;2.00;;
21022;SDS011;10669;51.076;3.714;2022-08-01T06:36:18;4.97;;;2.22;;
21022;SDS011;10669;51.076;3.714;2022-08-01T06:41:13;3.72;;;2.35;;
21022;SDS011;10669;51.076;3.714;2022-08-01T06:43:39;4.88;;;2.20;;
21022;SDS011;10669;51.076;3.714;2022-08-01T06:46:06;6.50;;;2.20;;
21022;SDS011;10669;51.076;3.714;2022-08-01T06:48:34;7.28;;;2.97;;
21022;SDS011;10669;51.076;3.714;2022-08-01T06:51:06;3.33;;;2.38;;
21022;SDS011;10669;51.076;3.714;2022-08-01T06:53:43;5.05;;;2.33;;
21022;SDS011;10669;51.076;3.714;2022-08-01T06:56:09;3.95;;;2.08;;
21022;SDS011;10669;51.076;3.714;2022-08-01T06:58:36;6.15;;;1.83;;
21022;SDS011;10669;51.076;3.714;2022-08-01T07:01:04;3.38;;;1.65;;
21022;SDS011;10669;51.076;3.714;2022-08-01T07:03:36;4.03;;;1.90;;
21022;SDS011;10669;51.076;3.714;2022-08-01T07:06:04;3.42;;;1.60;;
21022;SDS011;10669;51.076;3.714;2022-08-01T07:08:29;4.50;;;2.17;;
21022;SDS011;10669;51.076;3.714;2022-08-01T07:10:57;4.13;;;1.50;;
21022;SDS011;10669;51.076;3.714;2022-08-01T07:15:59;1.92;;;1.10;;
21022;SDS011;10669;51.076;3.714;2022-08-01T07:18:27;2.83;;;1.10;;
21022;SDS011;10669;51.076;3.714;2022-08-01T07:20:54;2.08;;;1.35;;
21022;SDS011;10669;51.076;3.714;2022-08-01T07:23:21;1.58;;;1.27;;
21022;SDS011;10669;51.076;3.714;2022-08-01T07:25:50;2.20;;;1.10;;
21022;SDS011;10669;51.076;3.714;2022-08-01T07:28:17;3.08;;;1.27;;
21022;SDS011;10669;51.076;3.714;2022-08-01T07:30:44;1.70;;;1.52;;
21022;SDS011;10669;51.076;3.714;2022-08-01T07:33:10;1.30;;;1.20;;
21022;SDS011;10669;51.076;3.714;2022-08-01T07:35:37;2.35;;;0.93;;
21022;SDS011;10669;51.076;3.714;2022-08-01T07:38:07;3.38;;;1.05;;
21022;SDS011;10669;51.076;3.714;2022-08-01T07:40:33;1.25;;;0.90;;
21022;SDS011;10669;51.076;3.714;2022-08-01T07:42:58;1.63;;;0.90;;
21022;SDS011;10669;51.076;3.714;2022-08-01T07:45:26;3.78;;;0.95;;
21022;SDS011;10669;51.076;3.714;2022-08-01T07:47:52;2.70;;;0.90;;
21022;SDS011;10669;51.076;3.714;2022-08-01T07:50:18;2.00;;;1.00;;
21022;SDS011;10669;51.076;3.714;2022-08-01T07:52:46;2.72;;;1.20;;
21022;SDS011;10669;51.076;3.714;2022-08-01T07:55:14;3.08;;;1.20;;
21022;SDS011;10669;51.076;3.714;2022-08-01T07:57:40;1.27;;;1.10;;
21022;SDS011;10669;51.076;3.714;2022-08-01T08:05:05;1.27;;;1.17;;
21022;SDS011;10669;51.076;3.714;2022-08-01T08:07:33;9.85;;;1.55;;
21022;SDS011;10669;51.076;3.714;2022-08-01T08:09:59;3.45;;;1.70;;
21022;SDS011;10669;51.076;3.714;2022-08-01T08:12:25;2.35;;;1.80;;
21022;SDS011;10669;51.076;3.714;2022-08-01T08:14:58;2.53;;;1.70;;
21022;SDS011;10669;51.076;3.714;2022-08-01T08:17:26;2.78;;;2.58;;
21022;SDS011;10669;51.076;3.714;2022-08-01T08:19:51;2.65;;;2.45;;
21022;SDS011;10669;51.076;3.714;2022-08-01T08:22:18;4.22;;;3.70;;
21022;SDS011;10669;51.076;3.714;2022-08-01T08:24:44;3.28;;;2.95;;
21022;SDS011;10669;51.076;3.714;2022-08-01T08:27:10;3.72;;;3.28;;
21022;SDS011;10669;51.076;3.714;2022-08-01T08:29:36;3.10;;;2.63;;
21022;SDS011;10669;51.076;3.714;2022-08-01T08:32:04;4.38;;;1.95;;
21022;SDS011;10669;51.076;3.714;2022-08-01T08:34:31;1.98;;;1.33;;
21022;SDS011;10669;51.076;3.714;2022-08-01T08:36:57;1.63;;;1.15;;
21022;SDS011;10669;51.076;3.714;2022-08-01T08:39:25;1.38;;;1.00;;
21022;SDS011;10669;51.076;3.714;2022-08-01T08:41:52;1.92;;;1.00;;
21022;SDS011;10669;51.076;3.714;2022-08-01T08:44:18;4.43;;;1.00;;
21022;SDS011;10669;51.076;3.714;2022-08-01T08:46:49;1.05;;;0.88;;
21022;SDS011;10669;51.076;3.714;2022-08-01T08:51:50;2.28;;;0.95;;
21022;SDS011;10669;51.076;3.714;2022-08-01T08:54:21;1.40;;;0.90;;
21022;SDS011;10669;51.076;3.714;2022-08-01T08:56:48;2.78;;;0.85;;
21022;SDS011;10669;51.076;3.714;2022-08-01T08:59:20;2.45;;;0.90;;
21022;SDS011;10669;51.076;3.714;2022-08-01T09:01:52;2.85;;;1.10;;
21022;SDS011;10669;51.076;3.714;2022-08-01T09:04:21;1.80;;;1.00;;
21022;SDS011;10669;51.076;3.714;2022-08-01T09:06:51;1.15;;;1.00;;
21022;SDS011;10669;51.076;3.714;2022-08-01T09:09:18;1.25;;;0.93;;
21022;SDS011;10669;51.076;3.714;2022-08-01T09:11:46;2.13;;;1.00;;
21022;SDS011;10669;51.076;3.714;2022-08-01T09:14:16;4.15;;;1.10;;
21022;SDS011;10669;51.076;3.714;2022-08-01T09:17:00;2.28;;;0.90;;
21022;SDS011;10669;51.076;3.714;2022-08-01T09:19:34;3.15;;;1.33;;
21022;SDS011;10669;51.076;3.714;2022-08-01T09:24:36;2.47;;;0.70;;
21022;SDS011;10669;51.076;3.714;2022-08-01T09:29:52;1.60;;;0.90;;
21022;SDS011;10669;51.076;3.714;2022-08-01T09:32:22;1.20;;;1.10;;
21022;SDS011;10669;51.076;3.714;2022-08-01T09:37:16;4.40;;;1.25;;
21022;SDS011;10669;51.076;3.714;2022-08-01T09:39:55;2.45;;;1.30;;
21022;SDS011;10669;51.076;3.714;2022-08-01T09:42:29;1.23;;;0.98;;
21022;SDS011;10669;51.076;3.714;2022-08-01T09:47:36;1.95;;;0.82;;
21022;SDS011;10669;51.076;3.714;2022-08-01T09:50:05;1.88;;;1.00;;
21022;SDS011;10669;51.076;3.714;2022-08-01T09:52:34;2.80;;;1.02;;
21022;SDS011;10669;51.076;3.714;2022-08-01T09:55:02;1.23;;;0.95;;
21022;SDS011;10669;51.076;3.714;2022-08-01T09:57:31;3.17;;;1.15;;
21022;SDS011;10669;51.076;3.714;2022-08-01T09:59:58;2.22;;;1.10;;
21022;SDS011;10669;51.076;3.714;2022-08-01T10:02:30;1.08;;;0.98;;
21022;SDS011;10669;51.076;3.714;2022-08-01T10:05:07;4.57;;;1.40;;
21022;SDS011;10669;51.076;3.714;2022-08-01T10:07:55;2.35;;;1.10;;
21022;SDS011;10669;51.076;3.714;2022-08-01T10:10:27;3.20;;;1.38;;
21022;SDS011;10669;51.076;3.714;2022-08-01T10:12:53;2.28;;;1.10;;
21022;SDS011;10669;51.076;3.714;2022-08-01T10:15:22;3.78;;;1.13;;
21022;SDS011;10669;51.076;3.714;2022-08-01T10:17:53;1.95;;;1.05;;
21022;SDS011;10669;51.076;3.714;2022-08-01T10:20:27;3.17;;;1.55;;
21022;SDS011;10669;51.076;3.714;2022-08-01T10:23:01;1.02;;;0.95;;
21022;SDS011;10669;51.076;3.714;2022-08-01T10:25:35;3.22;;;1.20;;
21022;SDS011;10669;51.076;3.714;2022-08-01T10:28:10;2.95;;;1.50;;
21022;SDS011;10669;51.076;3.714;2022-08-01T10:30:42;2.83;;;1.33;;
21022;SDS011;10669;51.076;3.714;2022-08-01T10:33:15;4.80;;;1.40;;
21022;SDS011;10669;51.076;3.714;2022-08-01T10:38:10;4.22;;;1.52;;
21022;SDS011;10669;51.076;3.714;2022-08-01T10:40:40;3.25;;;1.33;;
21022;SDS011;10669;51.076;3.714;2022-08-01T10:43:09;4.03;;;1.63;;
21022;SDS011;10669;51.076;3.714;2022-08-01T10:45:35;3.13;;;1.38;;
21022;SDS011;10669;51.076;3.714;2022-08-01T10:48:06;5.43;;;1.20;;
21022;SDS011;10669;51.076;3.714;2022-08-01T10:50:49;5.57;;;1.77;;
21022;SDS011;10669;51.076;3.714;2022-08-01T10:53:27;3.13;;;1.70;;
21022;SDS011;10669;51.076;3.714;2022-08-01T11:01:16;3.22;;;1.30;;
21022;SDS011;10669;51.076;3.714;2022-08-01T11:06:39;2.70;;;1.60;;
21022;SDS011;10669;51.076;3.714;2022-08-01T11:17:42;3.20;;;1.67;;
21022;SDS011;10669;51.076;3.714;2022-08-01T11:20:18;4.57;;;1.70;;
21022;SDS011;10669;51.076;3.714;2022-08-01T11:28:17;3.22;;;1.42;;
21022;SDS011;10669;51.076;3.714;2022-08-01T11:38:43;2.00;;;1.42;;
21022;SDS011;10669;51.076;3.714;2022-08-01T11:41:16;2.60;;;1.48;;
21022;SDS011;10669;51.076;3.714;2022-08-01T11:51:59;2.65;;;1.50;;
21022;SDS011;10669;51.076;3.714;2022-08-01T11:54:27;1.92;;;1.10;;
21022;SDS011;10669;51.076;3.714;2022-08-01T11:56:58;2.65;;;1.40;;
21022;SDS011;10669;51.076;3.714;2022-08-01T11:59:34;1.30;;;1.00;;
21022;SDS011;10669;51.076;3.714;2022-08-01T12:02:17;0.98;;;0.90;;
21022;SDS011;10669;51.076;3.714;2022-08-01T12:04:51;3.38;;;1.38;;
21022;SDS011;10669;51.076;3.714;2022-08-01T12:07:23;3.53;;;1.70;;
21022;SDS011;10669;51.076;3.714;2022-08-01T12:09:59;5.28;;;1.52;;
21022;SDS011;10669;51.076;3.714;2022-08-01T12:12:37;3.63;;;1.30;;
21022;SDS011;10669;51.076;3.714;2022-08-01T12:15:08;7.55;;;1.67;;
21022;SDS011;10669;51.076;3.714;2022-08-01T12:17:36;2.38;;;1.13;;
21022;SDS011;10669;51.076;3.714;2022-08-01T12:20:04;4.05;;;1.42;;
21022;SDS011;10669;51.076;3.714;2022-08-01T12:22:40;1.88;;;1.40;;
21022;SDS011;10669;51.076;3.714;2022-08-01T12:25:12;1.63;;;1.25;;
21022;SDS011;10669;51.076;3.714;2022-08-01T12:27:43;6.10;;;1.48;;
21022;SDS011;10669;51.076;3.714;2022-08-01T12:30:11;6.97;;;1.52;;
21022;SDS011;10669;51.076;3.714;2022-08-01T12:32:53;4.80;;;1.75;;
21022;SDS011;10669;51.076;3.714;2022-08-01T12:35:22;2.13;;;1.55;;
21022;SDS011;10669;51.076;3.714;2022-08-01T12:37:59;2.45;;;1.35;;
21022;SDS011;10669;51.076;3.714;2022-08-01T12:43:04;2.55;;;1.35;;
21022;SDS011;10669;51.076;3.714;2022-08-01T12:45:35;2.33;;;1.60;;
21022;SDS011;10669;51.076;3.714;2022-08-01T12:48:15;5.97;;;1.45;;
21022;SDS011;10669;51.076;3.714;2022-08-01T12:50:45;2.67;;;1.50;;
21022;SDS011;10669;51.076;3.714;2022-08-01T12:53:18;2.60;;;1.65;;
21022;SDS011;10669;51.076;3.714;2022-08-01T12:55:46;3.63;;;1.70;;
21022;SDS011;10669;51.076;3.714;2022-08-01T12:58:14;3.78;;;1.80;;
21022;SDS011;10669;51.076;3.714;2022-08-01T13:00:46;5.40;;;2.10;;
21022;SDS011;10669;51.076;3.714;2022-08-01T13:03:14;3.58;;;1.92;;
21022;SDS011;10669;51.076;3.714;2022-08-01T13:05:55;5.63;;;2.20;;
21022;SDS011;10669;51.076;3.714;2022-08-01T13:11:05;4.43;;;1.80;;
21022;SDS011;10669;51.076;3.714;2022-08-01T13:13:39;4.10;;;1.60;;
21022;SDS011;10669;51.076;3.714;2022-08-01T13:16:09;3.25;;;1.80;;
21022;SDS011;10669;51.076;3.714;2022-08-01T13:18:38;6.25;;;1.70;;
21022;SDS011;10669;51.076;3.714;2022-08-01T13:23:35;1.50;;;1.15;;
21022;SDS011;10669;51.076;3.714;2022-08-01T13:26:08;1.92;;;1.27;;
21022;SDS011;10669;51.076;3.714;2022-08-01T13:28:35;2.95;;;1.30;;
21022;SDS011;10669;51.076;3.714;2022-08-01T13:31:06;1.48;;;1.02;;
21022;SDS011;10669;51.076;3.714;2022-08-01T13:33:42;1.10;;;0.82;;
21022;SDS011;10669;51.076;3.714;2022-08-01T13:36:09;3.55;;;1.10;;
21022;SDS011;10669;51.076;3.714;2022-08-01T13:38:38;4.03;;;1.50;;
21022;SDS011;10669;51.076;3.714;2022-08-01T13:41:24;4.63;;;1.20;;
21022;SDS011;10669;51.076;3.714;2022-08-01T13:43:51;4.15;;;1.10;;
21022;SDS011;10669;51.076;3.714;2022-08-01T13:46:18;8.60;;;1.15;;
21022;SDS011;10669;51.076;3.714;2022-08-01T13:48:45;2.70;;;1.10;;
21022;SDS011;10669;51.076;3.714;2022-08-01T13:51:13;5.20;;;1.15;;
21022;SDS011;10669;51.076;3.714;2022-08-01T13:53:41;5.25;;;1.00;;
21022;SDS011;10669;51.076;3.714;2022-08-01T13:56:07;2.45;;;1.00;;
21022;SDS011;10669;51.076;3.714;2022-08-01T13:58:32;4.15;;;0.90;;
21022;SDS011;10669;51.076;3.714;2022-08-01T14:00:59;1.50;;;0.77;;
21022;SDS011;10669;51.076;3.714;2022-08-01T14:03:26;2.10;;;0.88;;
21022;SDS011;10669;51.076;3.714;2022-08-01T14:05:53;3.97;;;1.10;;
21022;SDS011;10669;51.076;3.714;2022-08-01T14:08:18;1.48;;;0.80;;
21022;SDS011;10669;51.076;3.714;2022-08-01T14:10:47;5.18;;;1.20;;
21022;SDS011;10669;51.076;3.714;2022-08-01T14:13:14;2.35;;;0.85;;
21022;SDS011;10669;51.076;3.714;2022-08-01T14:15:40;0.85;;;0.85;;
21022;SDS011;10669;51.076;3.714;2022-08-01T14:18:12;2.67;;;1.05;;
21022;SDS011;10669;51.076;3.714;2022-08-01T14:20:41;1.50;;;0.93;;
21022;SDS011;10669;51.076;3.714;2022-08-01T14:23:09;1.77;;;0.77;;
21022;SDS011;10669;51.076;3.714;2022-08-01T14:25:35;4.82;;;1.02;;
21022;SDS011;10669;51.076;3.714;2022-08-01T14:28:02;3.45;;;1.00;;
21022;SDS011;10669;51.076;3.714;2022-08-01T14:30:30;1.65;;;0.73;;
21022;SDS011;10669;51.076;3.714;2022-08-01T14:32:57;2.05;;;0.90;;
21022;SDS011;10669;51.076;3.714;2022-08-01T14:35:26;1.77;;;1.00;;
21022;SDS011;10669;51.076;3.714;2022-08-01T14:37:53;3.20;;;1.10;;
21022;SDS011;10669;51.076;3.714;2022-08-01T14:40:21;5.38;;;0.88;;
21022;SDS011;10669;51.076;3.714;2022-08-01T14:42:48;1.90;;;0.80;;
21022;SDS011;10669;51.076;3.714;2022-08-01T14:45:14;2.95;;;0.90;;
21022;SDS011;10669;51.076;3.714;2022-08-01T14:47:41;2.10;;;0.73;;
21022;SDS011;10669;51.076;3.714;2022-08-01T14:50:11;1.95;;;0.70;;
21022;SDS011;10669;51.076;3.714;2022-08-01T14:52:39;1.10;;;0.70;;
21022;SDS011;10669;51.076;3.714;2022-08-01T14:55:07;1.70;;;0.60;;
21022;SDS011;10669;51.076;3.714;2022-08-01T14:57:37;4.72;;;0.93;;
21022;SDS011;10669;51.076;3.714;2022-08-01T15:00:04;1.33;;;0.80;;
21022;SDS011;10669;51.076;3.714;2022-08-01T15:02:32;1.73;;;0.88;;
21022;SDS011;10669;51.076;3.714;2022-08-01T15:04:57;4.65;;;0.90;;
21022;SDS011;10669;51.076;3.714;2022-08-01T15:07:26;2.85;;;1.23;;
21022;SDS011;10669;51.076;3.714;2022-08-01T15:09:52;1.88;;;0.95;;
21022;SDS011;10669;51.076;3.714;2022-08-01T15:12:19;5.97;;;0.90;;
21022;SDS011;10669;51.076;3.714;2022-08-01T15:14:45;1.13;;;0.90;;
21022;SDS011;10669;51.076;3.714;2022-08-01T15:17:17;6.00;;;1.00;;
21022;SDS011;10669;51.076;3.714;2022-08-01T15:19:44;3.33;;;0.82;;
21022;SDS011;10669;51.076;3.714;2022-08-01T15:22:10;3.33;;;0.80;;
21022;SDS011;10669;51.076;3.714;2022-08-01T15:24:37;2.15;;;0.90;;
21022;SDS011;10669;51.076;3.714;2022-08-01T15:27:03;1.77;;;1.00;;
21022;SDS011;10669;51.076;3.714;2022-08-01T15:29:30;3.35;;;0.80;;
21022;SDS011;10669;51.076;3.714;2022-08-01T15:31:56;1.00;;;0.80;;
21022;SDS011;10669;51.076;3.714;2022-08-01T15:34:25;3.45;;;1.10;;
21022;SDS011;10669;51.076;3.714;2022-08-01T15:36:51;2.50;;;0.80;;
21022;SDS011;10669;51.076;3.714;2022-08-01T15:39:17;1.50;;;0.75;;
21022;SDS011;10669;51.076;3.714;2022-08-01T15:41:43;5.55;;;0.82;;
21022;SDS011;10669;51.076;3.714;2022-08-01T15:44:10;2.38;;;1.25;;
21022;SDS011;10669;51.076;3.714;2022-08-01T15:46:35;3.05;;;0.63;;
21022;SDS011;10669;51.076;3.714;2022-08-01T15:49:03;1.38;;;0.80;;
21022;SDS011;10669;51.076;3.714;2022-08-01T15:51:30;2.63;;;1.20;;
21022;SDS011;10669;51.076;3.714;2022-08-01T15:53:57;6.75;;;1.23;;
21022;SDS011;10669;51.076;3.714;2022-08-01T15:56:27;4.68;;;1.05;;
21022;SDS011;10669;51.076;3.714;2022-08-01T15:58:55;1.75;;;0.80;;
21022;SDS011;10669;51.076;3.714;2022-08-01T16:01:22;2.58;;;1.00;;
21022;SDS011;10669;51.076;3.714;2022-08-01T16:03:48;3.20;;;1.17;;
21022;SDS011;10669;51.076;3.714;2022-08-01T16:06:15;2.50;;;1.42;;
21022;SDS011;10669;51.076;3.714;2022-08-01T16:08:40;2.22;;;0.80;;
21022;SDS011;10669;51.076;3.714;2022-08-01T16:11:07;1.75;;;1.30;;
21022;SDS011;10669;51.076;3.714;2022-08-01T16:13:35;3.03;;;1.08;;
21022;SDS011;10669;51.076;3.714;2022-08-01T16:16:01;1.98;;;0.98;;
21022;SDS011;10669;51.076;3.714;2022-08-01T16:18:30;2.10;;;1.13;;
21022;SDS011;10669;51.076;3.714;2022-08-01T16:20:57;5.00;;;1.23;;
21022;SDS011;10669;51.076;3.714;2022-08-01T16:23:25;1.35;;;0.80;;
21022;SDS011;10669;51.076;3.714;2022-08-01T16:28:20;2.40;;;1.00;;
21022;SDS011;10669;51.076;3.714;2022-08-01T16:30:46;3.38;;;1.00;;
21022;SDS011;10669;51.076;3.714;2022-08-01T16:33:14;0.82;;;0.70;;
21022;SDS011;10669;51.076;3.714;2022-08-01T16:35:41;3.28;;;1.00;;
21022;SDS011;10669;51.076;3.714;2022-08-01T16:38:10;2.95;;;1.50;;
21022;SDS011;10669;51.076;3.714;2022-08-01T16:40:36;1.50;;;1.15;;
21022;SDS011;10669;51.076;3.714;2022-08-01T16:43:02;1.73;;;1.13;;
21022;SDS011;10669;51.076;3.714;2022-08-01T16:45:28;1.75;;;0.73;;
21022;SDS011;10669;51.076;3.714;2022-08-01T16:47:55;2.72;;;1.17;;
21022;SDS011;10669;51.076;3.714;2022-08-01T16:50:22;2.58;;;0.73;;
21022;SDS011;10669;51.076;3.714;2022-08-01T16:52:49;4.28;;;1.10;;
21022;SDS011;10669;51.076;3.714;2022-08-01T16:55:15;1.67;;;0.80;;
21022;SDS011;10669;51.076;3.714;2022-08-01T16:57:41;2.45;;;0.88;;
21022;SDS011;10669;51.076;3.714;2022-08-01T17:00:08;1.95;;;1.02;;
21022;SDS011;10669;51.076;3.714;2022-08-01T17:02:36;2.25;;;0.95;;
21022;SDS011;10669;51.076;3.714;2022-08-01T17:05:03;3.45;;;0.90;;
21022;SDS011;10669;51.076;3.714;2022-08-01T17:07:30;3.28;;;0.88;;